Cedar City, Utah
Current Conditions -  °F | °C
As of 2:53 AM on Thursday 23 Oct 2014 (Local Time) from KCDC Reporting Station
Clear Clear  
Wind Chill: 40°   Ceiling: Unl
Heat Index: 40°   Visibility: 10mi
Dew Point: 29°   Wind: 0mph
Humidity: 65%   Direction: NA
Pressure: 30.22"   Gusts: NA
Location:  37.68°N, 113.06°W
Report Text: KCDC 230853Z AUTO 00000KT 10SM CLR 04/M02 A3022 RMK AO2 SLP195 T00441017 53004 TSNO
Loading
Personal Weather Stations






























Interactive Weather Map
Tropical Storm Tracking
New forecast layout! Learn more

10-Day Weather Forecast

Advertisements
Track Severe Weather on mobile